createdAt,value
2018-08-31T00:02:31.799Z,49.80
2018-08-31T00:05:40.401Z,49.80
2018-08-31T00:08:36.784Z,49.90
2018-08-31T00:11:42.103Z,49.90
2018-08-31T00:14:10.825Z,49.90
2018-08-31T00:16:39.273Z,49.90
2018-08-31T00:19:07.684Z,50.00
2018-08-31T00:21:36.116Z,50.00
2018-08-31T00:24:15.777Z,50.00
2018-08-31T00:26:55.327Z,50.00
2018-08-31T00:29:35.608Z,50.00
2018-08-31T00:34:48.971Z,50.00
2018-08-31T00:39:33.512Z,50.00
2018-08-31T00:46:18.772Z,50.10
2018-08-31T00:48:47.232Z,50.10
2018-08-31T00:51:15.749Z,50.70
2018-08-31T00:53:44.556Z,50.10
2018-08-31T00:56:12.995Z,50.20
2018-08-31T00:58:41.520Z,50.20
2018-08-31T01:01:09.935Z,50.20
2018-08-31T01:03:38.389Z,50.20
2018-08-31T01:06:06.898Z,50.20
2018-08-31T01:08:35.332Z,50.30
2018-08-31T01:11:03.760Z,50.30
2018-08-31T01:13:32.618Z,50.30
2018-08-31T01:16:01.094Z,50.30
2018-08-31T01:18:29.592Z,50.30
2018-08-31T01:20:58.025Z,50.30
2018-08-31T01:23:26.499Z,50.30
2018-08-31T01:25:54.901Z,50.40
2018-08-31T01:28:23.323Z,50.40
2018-08-31T01:30:51.774Z,50.40
2018-08-31T01:33:20.279Z,50.40
2018-08-31T01:35:48.712Z,50.40
2018-08-31T01:38:17.236Z,50.40
2018-08-31T01:40:45.683Z,50.50
2018-08-31T01:43:14.181Z,50.50
2018-08-31T01:45:42.685Z,50.50
2018-08-31T01:48:11.178Z,50.50
2018-08-31T01:50:43.828Z,50.50
2018-08-31T01:53:12.440Z,50.50
2018-08-31T01:55:41.009Z,50.50
2018-08-31T01:58:09.469Z,50.60
2018-08-31T02:00:37.891Z,50.60
2018-08-31T02:03:06.423Z,50.60
2018-08-31T02:05:34.948Z,50.60
2018-08-31T02:08:03.352Z,50.70
2018-08-31T02:10:31.844Z,50.60
2018-08-31T02:13:00.351Z,50.60
2018-08-31T02:15:28.786Z,50.70
2018-08-31T02:17:57.235Z,50.70
2018-08-31T02:20:25.672Z,50.70
2018-08-31T02:22:54.218Z,50.70
2018-08-31T02:25:22.784Z,50.70
2018-08-31T02:27:51.256Z,50.80
2018-08-31T02:30:19.734Z,50.70
2018-08-31T02:32:48.128Z,50.70
2018-08-31T02:35:16.541Z,50.80
2018-08-31T02:37:44.970Z,50.80
2018-08-31T02:40:13.440Z,50.80
2018-08-31T02:42:41.895Z,50.80
2018-08-31T02:45:10.408Z,50.80
2018-08-31T02:47:38.887Z,50.80
2018-08-31T02:50:07.300Z,50.80
2018-08-31T02:52:35.730Z,50.80
2018-08-31T02:55:04.558Z,50.80
2018-08-31T02:57:33.152Z,50.80
2018-08-31T03:00:01.805Z,50.80
2018-08-31T03:02:30.232Z,50.80
2018-08-31T03:04:58.803Z,50.80
2018-08-31T03:07:27.198Z,50.80
2018-08-31T03:09:55.640Z,50.80
2018-08-31T03:12:24.060Z,50.80
2018-08-31T03:14:52.719Z,50.80
2018-08-31T03:17:21.159Z,50.80
2018-08-31T03:19:49.763Z,50.80
2018-08-31T03:22:18.341Z,50.80
2018-08-31T03:24:46.758Z,50.80
2018-08-31T03:27:15.194Z,50.80
2018-08-31T03:29:43.701Z,50.80
2018-08-31T03:32:12.284Z,50.80
2018-08-31T03:34:40.712Z,50.90
2018-08-31T03:37:09.114Z,50.90
2018-08-31T03:39:37.548Z,50.80
2018-08-31T03:42:06.173Z,50.90
2018-08-31T03:44:34.616Z,50.90
2018-08-31T03:47:03.061Z,50.90
2018-08-31T03:49:31.548Z,50.80
2018-08-31T03:51:59.992Z,50.90
2018-08-31T03:54:28.410Z,50.90
2018-08-31T03:56:56.966Z,50.90
2018-08-31T03:59:25.379Z,50.90
2018-08-31T04:01:53.912Z,50.90
2018-08-31T04:04:22.384Z,50.90
2018-08-31T04:06:50.872Z,50.90
2018-08-31T04:09:19.352Z,50.90
2018-08-31T04:11:47.796Z,50.90
2018-08-31T04:14:16.247Z,50.90
2018-08-31T04:16:44.737Z,50.90
2018-08-31T04:19:19.622Z,50.90
2018-08-31T04:21:48.103Z,50.90
2018-08-31T04:24:16.970Z,50.90
2018-08-31T04:26:46.070Z,50.90
2018-08-31T04:29:14.549Z,50.90
2018-08-31T04:31:43.120Z,50.90
2018-08-31T04:34:12.497Z,50.90
2018-08-31T04:36:41.931Z,50.90
2018-08-31T04:39:12.048Z,50.90
2018-08-31T04:41:40.952Z,50.90
2018-08-31T04:44:09.387Z,50.90
2018-08-31T04:46:37.938Z,50.90
2018-08-31T04:49:06.553Z,51.30
2018-08-31T04:51:35.016Z,50.90
2018-08-31T04:54:03.499Z,51.00
2018-08-31T04:56:32.965Z,51.00
2018-08-31T04:59:01.743Z,51.10
2018-08-31T05:01:31.391Z,51.20
2018-08-31T05:04:00.630Z,51.30
2018-08-31T05:06:29.169Z,51.90
2018-08-31T05:08:57.751Z,51.40
2018-08-31T05:11:26.209Z,51.40
2018-08-31T05:13:54.616Z,51.40
2018-08-31T05:16:23.316Z,51.50
2018-08-31T05:18:51.948Z,51.50
2018-08-31T05:21:20.366Z,51.70
2018-08-31T05:23:48.867Z,51.70
2018-08-31T05:26:17.325Z,51.70
2018-08-31T05:28:45.755Z,51.70
2018-08-31T05:31:14.161Z,51.60
2018-08-31T05:33:42.905Z,51.60
2018-08-31T05:36:11.716Z,51.70
2018-08-31T05:38:40.199Z,51.70
2018-08-31T05:41:08.732Z,52.20
2018-08-31T05:43:37.456Z,52.10
2018-08-31T05:46:06.012Z,52.20
2018-08-31T05:48:34.464Z,52.30
2018-08-31T05:51:03.090Z,52.90
2018-08-31T05:53:31.543Z,53.50
2018-08-31T05:56:00.042Z,51.80
2018-08-31T05:58:28.515Z,51.30
2018-08-31T06:00:57.099Z,50.90
2018-08-31T06:03:25.519Z,50.70
2018-08-31T06:05:55.060Z,50.40
2018-08-31T06:08:23.619Z,50.30
2018-08-31T06:10:52.275Z,50.30
2018-08-31T06:13:20.822Z,50.20
2018-08-31T06:15:49.331Z,50.30
2018-08-31T06:18:17.911Z,50.30
2018-08-31T06:20:46.370Z,50.30
2018-08-31T06:23:15.135Z,50.40
2018-08-31T06:25:43.606Z,50.30
2018-08-31T06:28:12.015Z,50.40
2018-08-31T06:30:40.471Z,50.40
2018-08-31T06:33:08.932Z,50.40
2018-08-31T06:35:37.389Z,50.50
2018-08-31T06:38:05.880Z,50.50
2018-08-31T06:40:34.291Z,50.50
2018-08-31T06:43:02.813Z,50.50
2018-08-31T06:45:31.239Z,50.60
2018-08-31T06:47:59.632Z,50.60
2018-08-31T06:50:28.034Z,50.70
2018-08-31T06:52:56.533Z,50.70
2018-08-31T06:55:24.993Z,50.70
2018-08-31T06:57:53.470Z,50.70
2018-08-31T07:00:21.970Z,50.70
2018-08-31T07:02:50.623Z,50.70
2018-08-31T07:05:19.164Z,50.80
2018-08-31T07:07:48.702Z,50.80
2018-08-31T07:10:17.148Z,50.80
2018-08-31T07:12:45.612Z,50.80
2018-08-31T07:15:14.120Z,50.90
2018-08-31T07:17:42.559Z,50.90
2018-08-31T07:20:11.009Z,50.90
2018-08-31T07:22:39.444Z,50.90
2018-08-31T07:25:07.950Z,50.90
2018-08-31T07:27:36.343Z,50.90
2018-08-31T07:30:05.023Z,50.90
2018-08-31T07:32:33.634Z,50.90
2018-08-31T07:35:02.056Z,50.90
2018-08-31T07:37:30.573Z,50.90
2018-08-31T07:39:59.308Z,50.90
2018-08-31T07:42:27.915Z,50.90
2018-08-31T07:44:56.304Z,50.90
2018-08-31T07:47:24.765Z,50.90
2018-08-31T07:49:53.254Z,50.90
2018-08-31T07:52:21.867Z,50.90
2018-08-31T07:54:50.328Z,51.00
2018-08-31T07:57:18.820Z,51.00
2018-08-31T07:59:47.204Z,51.00
2018-08-31T08:02:15.630Z,51.00
2018-08-31T08:04:44.284Z,51.00
2018-08-31T08:07:12.742Z,51.60
2018-08-31T08:09:41.205Z,51.00
2018-08-31T08:12:09.598Z,51.00
2018-08-31T08:14:37.988Z,51.00
2018-08-31T08:17:06.499Z,50.90
2018-08-31T08:19:35.139Z,50.90
2018-08-31T08:22:03.815Z,51.00
2018-08-31T08:24:32.440Z,51.00
2018-08-31T08:27:00.864Z,51.00
2018-08-31T08:29:29.380Z,50.90
2018-08-31T08:31:57.809Z,50.90
2018-08-31T08:34:26.570Z,50.80
2018-08-31T08:36:55.089Z,50.90
2018-08-31T08:39:23.732Z,50.80
2018-08-31T08:41:52.521Z,50.90
2018-08-31T08:44:21.098Z,50.80
2018-08-31T08:46:49.599Z,50.80
2018-08-31T08:49:18.071Z,50.80
2018-08-31T08:51:46.467Z,50.90
2018-08-31T08:54:14.881Z,50.80
2018-08-31T08:56:43.426Z,50.70
2018-08-31T08:59:12.001Z,50.70
2018-08-31T09:01:40.692Z,50.80
2018-08-31T09:04:09.260Z,50.80
2018-08-31T09:06:37.762Z,51.30
2018-08-31T09:09:07.743Z,50.70
2018-08-31T09:11:36.152Z,50.70
2018-08-31T09:14:04.599Z,50.70
2018-08-31T09:16:33.923Z,50.60
2018-08-31T09:19:02.457Z,50.60
2018-08-31T09:21:30.852Z,50.60
2018-08-31T09:23:59.339Z,50.60
2018-08-31T09:26:27.742Z,50.50
2018-08-31T09:28:56.132Z,50.50
2018-08-31T09:31:24.682Z,50.50
2018-08-31T09:33:53.312Z,50.50
2018-08-31T09:36:21.716Z,50.50
2018-08-31T09:38:50.192Z,50.50
2018-08-31T09:41:18.607Z,50.50
2018-08-31T09:43:47.077Z,50.50
2018-08-31T09:46:15.495Z,50.50
2018-08-31T09:48:43.916Z,50.50
2018-08-31T09:51:12.397Z,50.50
2018-08-31T09:53:40.812Z,50.50
2018-08-31T09:56:09.208Z,50.50
2018-08-31T09:58:37.612Z,50.50
2018-08-31T10:01:11.699Z,50.60
2018-08-31T10:03:40.392Z,50.50
2018-08-31T10:06:08.776Z,50.60
2018-08-31T10:08:38.332Z,50.50
2018-08-31T10:11:06.737Z,50.50
2018-08-31T10:13:35.112Z,50.50
2018-08-31T10:16:03.679Z,50.40
2018-08-31T10:18:32.160Z,50.30
2018-08-31T10:21:00.634Z,50.40
2018-08-31T10:23:29.308Z,50.50
2018-08-31T10:25:57.748Z,50.40
2018-08-31T10:28:26.804Z,50.50
2018-08-31T10:30:55.291Z,50.40
2018-08-31T10:33:24.054Z,50.30
2018-08-31T10:35:52.600Z,50.30
2018-08-31T10:38:21.249Z,50.20
2018-08-31T10:40:49.860Z,50.20
2018-08-31T10:43:18.356Z,50.20
2018-08-31T10:45:46.808Z,50.20
2018-08-31T10:48:15.235Z,50.10
2018-08-31T10:50:43.756Z,50.10
2018-08-31T10:53:12.195Z,50.10
2018-08-31T10:55:40.614Z,49.90
2018-08-31T10:58:09.052Z,49.90
2018-08-31T11:00:37.526Z,49.90
2018-08-31T11:03:05.978Z,49.80
2018-08-31T11:05:34.384Z,49.70
2018-08-31T11:08:02.851Z,49.70
2018-08-31T11:10:31.468Z,49.60
2018-08-31T11:12:59.914Z,49.60
2018-08-31T11:15:28.340Z,49.70
2018-08-31T11:17:56.751Z,49.70
2018-08-31T11:20:26.288Z,49.70
2018-08-31T11:22:54.764Z,49.40
2018-08-31T11:25:23.162Z,49.50
2018-08-31T11:27:51.886Z,49.50
2018-08-31T11:30:20.254Z,49.60
2018-08-31T11:32:48.764Z,49.50
2018-08-31T11:35:17.204Z,49.50
2018-08-31T11:37:45.623Z,49.60
2018-08-31T11:40:14.044Z,49.50
2018-08-31T11:42:42.655Z,49.20
2018-08-31T11:45:11.244Z,49.30
2018-08-31T11:47:39.685Z,49.40
2018-08-31T11:50:08.356Z,49.90
2018-08-31T11:52:36.982Z,49.30
2018-08-31T11:55:05.412Z,49.30
2018-08-31T11:57:33.863Z,49.00
2018-08-31T12:00:02.364Z,48.90
2018-08-31T12:02:30.790Z,49.00
2018-08-31T12:04:59.357Z,48.60
2018-08-31T12:07:27.783Z,48.90
2018-08-31T12:09:56.479Z,49.00
2018-08-31T12:12:24.989Z,49.10
2018-08-31T12:14:53.548Z,49.10
2018-08-31T12:17:21.984Z,49.00
2018-08-31T12:19:50.415Z,49.10
2018-08-31T12:22:18.888Z,49.00
2018-08-31T12:24:47.397Z,48.80
2018-08-31T12:27:15.810Z,48.70
2018-08-31T12:29:44.292Z,48.90
2018-08-31T12:32:12.703Z,48.90
2018-08-31T12:34:41.217Z,48.50
2018-08-31T12:37:09.632Z,47.80
2018-08-31T12:39:38.092Z,46.80
2018-08-31T12:42:06.581Z,46.10
2018-08-31T12:44:35.021Z,45.60
2018-08-31T12:47:03.529Z,45.70
2018-08-31T12:49:32.093Z,46.50
2018-08-31T12:52:00.707Z,46.40
2018-08-31T12:54:29.146Z,46.60
2018-08-31T12:56:57.584Z,46.30
2018-08-31T12:59:26.037Z,46.00
2018-08-31T13:01:54.442Z,44.80
2018-08-31T13:04:22.884Z,44.50
2018-08-31T13:06:51.307Z,44.80
2018-08-31T13:09:19.739Z,44.80
2018-08-31T13:11:48.159Z,45.60
2018-08-31T13:14:17.813Z,45.00
2018-08-31T13:16:46.244Z,45.30
2018-08-31T13:19:14.738Z,44.90
2018-08-31T13:21:43.280Z,44.40
2018-08-31T13:24:11.820Z,45.00
2018-08-31T13:26:40.237Z,45.30
2018-08-31T13:29:08.656Z,45.50
2018-08-31T13:31:37.071Z,45.40
2018-08-31T13:34:05.665Z,45.40
2018-08-31T13:36:34.195Z,45.40
2018-08-31T13:39:03.028Z,45.40
2018-08-31T13:41:31.456Z,45.50
2018-08-31T13:44:00.139Z,45.50
2018-08-31T13:46:28.594Z,45.50
2018-08-31T13:48:57.047Z,45.60
2018-08-31T13:51:25.972Z,45.50
2018-08-31T13:53:54.964Z,45.60
2018-08-31T13:56:23.562Z,45.70
2018-08-31T13:58:51.978Z,45.80
2018-08-31T14:01:20.629Z,45.90
2018-08-31T14:03:49.379Z,45.90
2018-08-31T14:06:18.024Z,45.90
2018-08-31T14:08:46.451Z,45.90
2018-08-31T14:11:14.859Z,46.10
2018-08-31T14:13:43.284Z,46.10
2018-08-31T14:16:21.534Z,46.20
2018-08-31T14:18:49.992Z,46.30
2018-08-31T14:21:18.445Z,46.30
2018-08-31T14:23:46.884Z,46.30
2018-08-31T14:26:15.326Z,46.20
2018-08-31T14:28:43.893Z,46.20
2018-08-31T14:31:12.446Z,46.10
2018-08-31T14:33:41.100Z,46.00
2018-08-31T14:36:09.530Z,45.90
2018-08-31T14:38:38.273Z,46.00
2018-08-31T14:41:06.819Z,46.10
2018-08-31T14:43:35.624Z,46.10
2018-08-31T14:46:04.146Z,46.10
2018-08-31T14:48:32.824Z,46.10
2018-08-31T14:51:01.320Z,46.10
2018-08-31T14:53:29.906Z,46.20
2018-08-31T14:55:58.615Z,46.10
2018-08-31T14:58:27.097Z,46.10
2018-08-31T15:00:55.536Z,46.30
2018-08-31T15:03:24.173Z,45.60
2018-08-31T15:05:53.254Z,45.40
2018-08-31T15:08:22.060Z,45.80
2018-08-31T15:10:50.476Z,46.10
2018-08-31T15:13:18.939Z,46.30
2018-08-31T15:15:47.399Z,46.50
2018-08-31T15:18:15.948Z,46.60
2018-08-31T15:20:44.393Z,46.80
2018-08-31T15:23:12.924Z,47.00
2018-08-31T15:25:41.399Z,47.10
2018-08-31T15:28:11.007Z,47.20
2018-08-31T15:30:39.461Z,47.30
2018-08-31T15:33:08.010Z,47.40
2018-08-31T15:35:36.479Z,47.50
2018-08-31T15:38:05.032Z,47.50
2018-08-31T15:40:33.543Z,47.50
2018-08-31T15:43:02.441Z,47.60
2018-08-31T15:45:31.455Z,47.60
2018-08-31T15:47:59.912Z,47.80
2018-08-31T15:50:28.347Z,47.70
2018-08-31T15:52:56.736Z,47.80
2018-08-31T15:55:25.139Z,47.80
2018-08-31T15:57:53.622Z,47.80
2018-08-31T16:00:22.008Z,48.00
2018-08-31T16:02:50.411Z,48.00
2018-08-31T16:05:18.846Z,47.90
2018-08-31T16:07:47.245Z,47.90
2018-08-31T16:10:15.663Z,47.80
2018-08-31T16:12:44.145Z,47.60
2018-08-31T16:15:12.735Z,47.20
2018-08-31T16:17:41.147Z,47.10
2018-08-31T16:20:09.694Z,48.20
2018-08-31T16:22:38.143Z,47.40
2018-08-31T16:25:06.656Z,47.30
2018-08-31T16:27:35.129Z,47.50
2018-08-31T16:30:03.604Z,47.30
2018-08-31T16:32:32.040Z,47.40
2018-08-31T16:35:00.522Z,47.50
2018-08-31T16:37:28.968Z,47.80
2018-08-31T16:39:57.518Z,47.80
2018-08-31T16:42:26.003Z,47.90
2018-08-31T16:44:54.456Z,48.10
2018-08-31T16:47:23.255Z,48.20
2018-08-31T16:49:51.582Z,48.30
2018-08-31T16:52:20.017Z,48.70
2018-08-31T16:54:48.473Z,48.70
2018-08-31T16:57:16.869Z,48.60
2018-08-31T16:59:45.272Z,48.70
2018-08-31T17:02:13.816Z,48.70
2018-08-31T17:04:42.436Z,48.90
2018-08-31T17:07:10.952Z,49.20
2018-08-31T17:09:39.404Z,49.30
2018-08-31T17:12:07.797Z,49.50
2018-08-31T17:14:36.214Z,49.80
2018-08-31T17:17:04.856Z,49.70
2018-08-31T17:19:33.371Z,49.80
2018-08-31T17:22:01.970Z,49.90
2018-08-31T17:24:30.486Z,49.90
2018-08-31T17:27:04.274Z,50.00
2018-08-31T17:29:33.137Z,50.10
2018-08-31T17:32:07.668Z,50.10
2018-08-31T17:34:41.508Z,50.20
2018-08-31T17:37:15.278Z,50.20
2018-08-31T17:39:43.784Z,50.30
2018-08-31T17:42:12.364Z,50.30
2018-08-31T17:44:41.138Z,51.00
2018-08-31T17:47:09.559Z,50.40
2018-08-31T17:49:38.059Z,50.40
2018-08-31T17:52:06.531Z,50.40
2018-08-31T17:54:35.011Z,50.50
2018-08-31T17:57:03.448Z,50.60
2018-08-31T17:59:31.918Z,50.60
2018-08-31T18:02:00.364Z,50.20
2018-08-31T18:04:29.907Z,50.50
2018-08-31T18:06:58.312Z,49.20
2018-08-31T18:09:26.873Z,49.20
2018-08-31T18:11:55.171Z,48.80
2018-08-31T18:14:23.697Z,48.70
2018-08-31T18:16:52.118Z,48.60
2018-08-31T18:19:20.588Z,48.60
2018-08-31T18:21:49.096Z,48.50
2018-08-31T18:24:17.661Z,48.10
2018-08-31T18:26:46.064Z,48.20
2018-08-31T18:29:14.540Z,48.20
2018-08-31T18:31:42.969Z,48.60
2018-08-31T18:34:11.439Z,48.50
2018-08-31T18:36:46.732Z,48.50
2018-08-31T18:39:15.193Z,48.30
2018-08-31T18:41:43.692Z,48.10
2018-08-31T18:44:12.163Z,48.10
2018-08-31T18:46:40.607Z,48.10
2018-08-31T18:49:08.992Z,48.20
2018-08-31T18:51:37.397Z,48.30
2018-08-31T18:54:05.864Z,48.40
2018-08-31T18:56:34.292Z,48.50
2018-08-31T18:59:02.696Z,48.60
2018-08-31T19:01:31.113Z,48.70
2018-08-31T19:03:59.515Z,48.80
2018-08-31T19:06:27.955Z,48.80
2018-08-31T19:08:56.380Z,49.00
2018-08-31T19:11:24.787Z,49.00
2018-08-31T19:13:53.299Z,49.10
2018-08-31T19:16:21.693Z,49.20
2018-08-31T19:18:50.074Z,49.20
2018-08-31T19:21:18.584Z,49.20
2018-08-31T19:23:46.956Z,49.20
2018-08-31T19:26:15.436Z,49.50
2018-08-31T19:28:43.866Z,49.50
2018-08-31T19:31:12.359Z,49.70
2018-08-31T19:33:40.752Z,49.60
2018-08-31T19:36:09.331Z,49.70
2018-08-31T19:38:37.834Z,49.80
2018-08-31T19:41:07.394Z,49.80
2018-08-31T19:43:37.443Z,49.80
2018-08-31T19:46:05.967Z,49.80
2018-08-31T19:48:34.694Z,50.00
2018-08-31T19:51:03.254Z,50.00
2018-08-31T19:53:31.784Z,49.90
2018-08-31T19:56:10.791Z,49.90
2018-08-31T19:58:41.158Z,50.00
2018-08-31T20:01:15.590Z,50.00
2018-08-31T20:03:47.178Z,50.00
2018-08-31T20:06:18.189Z,50.00
2018-08-31T20:08:46.886Z,50.00
2018-08-31T20:11:15.415Z,49.90
2018-08-31T20:13:43.991Z,50.00
2018-08-31T20:16:12.429Z,50.00
2018-08-31T20:18:41.015Z,50.00
2018-08-31T20:21:09.510Z,50.00
2018-08-31T20:23:38.259Z,50.00
2018-08-31T20:26:06.812Z,50.00
2018-08-31T20:28:35.357Z,50.00
2018-08-31T20:31:03.993Z,50.00
2018-08-31T20:33:32.443Z,50.00
2018-08-31T20:36:00.943Z,50.00
2018-08-31T20:38:29.587Z,50.00
2018-08-31T20:40:58.296Z,50.00
2018-08-31T20:43:26.715Z,50.00
2018-08-31T20:45:55.190Z,50.10
2018-08-31T20:48:23.689Z,50.00
2018-08-31T20:50:52.505Z,50.10
2018-08-31T20:53:21.186Z,50.00
2018-08-31T20:55:50.050Z,50.00
2018-08-31T20:58:18.705Z,50.10
2018-08-31T21:00:47.216Z,50.10
2018-08-31T21:03:15.647Z,50.10
2018-08-31T21:05:44.273Z,50.00
2018-08-31T21:08:12.899Z,50.00
2018-08-31T21:10:41.343Z,50.00
2018-08-31T21:13:10.261Z,50.10
2018-08-31T21:15:38.796Z,50.00
2018-08-31T21:18:07.311Z,50.10
2018-08-31T21:20:36.012Z,50.10
2018-08-31T21:23:04.497Z,50.20
2018-08-31T21:25:32.969Z,50.20
2018-08-31T21:28:01.428Z,50.20
2018-08-31T21:30:29.963Z,50.30
2018-08-31T21:32:58.421Z,50.30
2018-08-31T21:35:26.864Z,50.30
2018-08-31T21:37:55.397Z,50.40
2018-08-31T21:40:23.917Z,50.40
2018-08-31T21:42:52.399Z,50.50
2018-08-31T21:45:20.804Z,50.50
2018-08-31T21:47:49.228Z,50.60
2018-08-31T21:50:17.685Z,50.60
2018-08-31T21:52:46.093Z,50.70
2018-08-31T21:55:14.777Z,50.70
2018-08-31T21:57:43.173Z,50.70
2018-08-31T22:00:14.467Z,50.60
2018-08-31T22:02:43.015Z,50.50
2018-08-31T22:05:11.457Z,50.50
2018-08-31T22:07:39.970Z,50.60
2018-08-31T22:10:08.390Z,50.50
2018-08-31T22:12:36.836Z,50.50
2018-08-31T22:15:09.928Z,50.50
2018-08-31T22:17:38.519Z,50.60
2018-08-31T22:20:07.958Z,50.60
2018-08-31T22:22:36.403Z,50.60
2018-08-31T22:25:04.896Z,50.60
2018-08-31T22:27:33.367Z,50.50
2018-08-31T22:30:01.821Z,50.50
2018-08-31T22:32:30.390Z,50.50
2018-08-31T22:34:58.821Z,50.50
2018-08-31T22:37:27.215Z,50.60
2018-08-31T22:39:55.627Z,50.50
2018-08-31T22:42:24.026Z,50.60
2018-08-31T22:44:52.411Z,50.60
2018-08-31T22:47:20.828Z,50.60
2018-08-31T22:49:49.257Z,50.70
2018-08-31T22:52:17.660Z,50.60
2018-08-31T22:54:46.119Z,50.50
2018-08-31T22:57:14.544Z,50.50
2018-08-31T22:59:43.065Z,50.50
2018-08-31T23:02:11.438Z,50.50
2018-08-31T23:04:39.851Z,50.50
2018-08-31T23:07:12.523Z,50.50
2018-08-31T23:09:40.926Z,50.50
2018-08-31T23:12:09.395Z,50.50
2018-08-31T23:14:37.800Z,50.50
2018-08-31T23:17:06.247Z,50.60
2018-08-31T23:19:34.819Z,50.50
2018-08-31T23:22:03.304Z,50.50
2018-08-31T23:24:31.745Z,50.50
2018-08-31T23:27:00.259Z,50.50
2018-08-31T23:29:28.684Z,50.50
2018-08-31T23:31:57.135Z,50.50
2018-08-31T23:34:25.687Z,50.50
2018-08-31T23:36:54.144Z,50.40
2018-08-31T23:39:22.575Z,50.60
2018-08-31T23:41:50.993Z,50.50
2018-08-31T23:44:19.431Z,50.50
2018-08-31T23:46:48.069Z,50.40
2018-08-31T23:49:16.500Z,50.40
2018-08-31T23:51:44.971Z,50.40
2018-08-31T23:54:13.351Z,50.30
2018-08-31T23:56:41.744Z,50.40
2018-08-31T23:59:10.192Z,50.40
